createdAt,value
2022-07-27T00:01:14.634Z,20917.56
2022-07-27T00:03:44.671Z,20842.34
2022-07-27T00:06:13.425Z,20848.44
2022-07-27T00:08:41.628Z,20834.22
2022-07-27T00:11:11.646Z,20801.69
2022-07-27T00:13:40.691Z,20805.75
2022-07-27T00:16:09.425Z,20824.06
2022-07-27T00:18:37.616Z,20817.94
2022-07-27T00:21:05.885Z,20791.53
2022-07-27T00:23:34.116Z,20785.44
2022-07-27T00:26:02.217Z,20803.72
2022-07-27T00:28:31.768Z,20769.16
2022-07-27T00:31:00.164Z,20813.88
2022-07-27T00:33:28.353Z,20775.25
2022-07-27T00:35:56.468Z,20773.22
2022-07-27T00:38:25.137Z,20787.47
2022-07-27T00:40:53.744Z,20805.75
2022-07-27T00:43:21.803Z,20779.31
2022-07-27T00:45:51.463Z,20826.09
2022-07-27T00:48:19.560Z,20813.88
2022-07-27T00:50:49.000Z,20795.59
2022-07-27T00:53:17.823Z,20807.78
2022-07-27T00:55:46.644Z,20832.19
2022-07-27T00:58:15.620Z,20781.38
2022-07-27T01:00:43.808Z,20777.28
2022-07-27T01:03:13.694Z,20779.31
2022-07-27T01:05:44.747Z,20767.13
2022-07-27T01:08:15.196Z,20781.38
2022-07-27T01:10:44.866Z,20761.03
2022-07-27T01:13:13.752Z,20744.78
2022-07-27T01:15:44.039Z,20773.22
2022-07-27T01:18:26.486Z,20793.56
2022-07-27T01:20:54.673Z,20756.97
2022-07-27T01:23:24.369Z,20789.50
2022-07-27T01:25:52.701Z,20822.03
2022-07-27T01:28:21.192Z,20783.41
2022-07-27T01:30:49.357Z,20797.63
2022-07-27T01:33:17.682Z,20795.59
2022-07-27T01:35:45.771Z,20752.91
2022-07-27T01:38:14.442Z,20771.19
2022-07-27T01:40:43.866Z,20720.38
2022-07-27T01:43:11.973Z,20754.94
2022-07-27T01:45:41.302Z,20683.78
2022-07-27T01:48:10.534Z,20679.72
2022-07-27T01:50:39.514Z,20724.44
2022-07-27T01:53:09.570Z,20754.94
2022-07-27T01:55:39.440Z,20720.38
2022-07-27T01:58:09.800Z,20693.94
2022-07-27T02:00:38.818Z,20693.94
2022-07-27T02:03:08.940Z,20724.44
2022-07-27T02:05:39.529Z,20754.94
2022-07-27T02:08:09.325Z,20724.44
2022-07-27T02:10:58.578Z,20752.91
2022-07-27T02:13:27.147Z,20706.16
2022-07-27T02:15:56.978Z,20722.41
2022-07-27T02:18:33.001Z,20661.44
2022-07-27T02:21:04.579Z,20665.50
2022-07-27T02:23:32.780Z,20712.25
2022-07-27T02:26:01.220Z,20765.09
2022-07-27T02:28:30.752Z,20797.63
2022-07-27T02:30:58.871Z,20720.38
2022-07-27T02:33:27.406Z,20744.78
2022-07-27T02:35:55.570Z,20708.19
2022-07-27T02:38:23.682Z,20689.88
2022-07-27T02:40:51.755Z,20691.91
2022-07-27T02:43:19.865Z,20728.50
2022-07-27T02:45:49.500Z,20687.84
2022-07-27T02:48:17.791Z,20687.84
2022-07-27T02:50:45.972Z,20698.00
2022-07-27T02:53:14.069Z,20637.03
2022-07-27T02:55:42.399Z,20641.09
2022-07-27T02:58:10.553Z,20661.44
2022-07-27T03:00:38.754Z,20679.72
2022-07-27T03:03:08.240Z,20691.91
2022-07-27T03:05:36.847Z,20683.78
2022-07-27T03:08:05.602Z,20683.78
2022-07-27T03:10:33.748Z,20661.44
2022-07-27T03:13:01.811Z,20661.44
2022-07-27T03:15:30.628Z,20582.16
2022-07-27T03:17:58.764Z,20551.66
2022-07-27T03:20:28.446Z,20596.38
2022-07-27T03:22:56.596Z,20610.59
2022-07-27T03:25:25.893Z,20527.25
2022-07-27T03:27:53.966Z,20559.78
2022-07-27T03:30:22.502Z,20588.25
2022-07-27T03:32:50.812Z,20612.63
2022-07-27T03:35:19.812Z,20618.72
2022-07-27T03:37:50.025Z,20673.63
2022-07-27T03:40:18.795Z,20618.72
2022-07-27T03:42:47.015Z,20578.09
2022-07-27T03:45:15.196Z,20639.06
2022-07-27T03:47:43.395Z,20596.38
2022-07-27T03:50:12.359Z,20594.34
2022-07-27T03:52:40.475Z,20598.41
2022-07-27T03:55:15.342Z,20624.84
2022-07-27T03:57:43.515Z,20604.50
2022-07-27T04:00:14.027Z,20643.13
2022-07-27T04:02:42.724Z,20580.13
2022-07-27T04:05:11.842Z,20588.25
2022-07-27T04:07:41.135Z,20567.91
2022-07-27T04:10:10.862Z,20588.25
2022-07-27T04:12:41.421Z,20657.34
2022-07-27T04:15:10.813Z,20582.16
2022-07-27T04:17:54.610Z,20596.38
2022-07-27T04:20:25.820Z,20635.00
2022-07-27T04:22:53.999Z,20624.84
2022-07-27T04:25:22.576Z,20655.31
2022-07-27T04:27:54.342Z,20651.25
2022-07-27T04:30:23.101Z,20622.81
2022-07-27T04:32:51.495Z,20624.84
2022-07-27T04:35:24.253Z,20661.44
2022-07-27T04:37:58.835Z,20624.84
2022-07-27T04:40:32.305Z,20645.16
2022-07-27T04:43:02.814Z,20624.84
2022-07-27T04:45:31.539Z,20643.13
2022-07-27T04:48:00.006Z,20647.19
2022-07-27T04:50:28.016Z,20643.13
2022-07-27T04:52:56.044Z,20635.00
2022-07-27T04:55:24.312Z,20637.03
2022-07-27T04:57:52.397Z,20651.25
2022-07-27T05:00:22.024Z,20618.72
2022-07-27T05:02:50.118Z,20659.38
2022-07-27T05:05:18.268Z,20618.72
2022-07-27T05:07:46.300Z,20622.81
2022-07-27T05:10:19.445Z,20657.34
2022-07-27T05:12:48.735Z,20637.03
2022-07-27T05:15:17.598Z,20679.72
2022-07-27T05:17:47.109Z,20659.38
2022-07-27T05:20:17.435Z,20667.53
2022-07-27T05:22:45.487Z,20608.56
2022-07-27T05:25:13.969Z,20635.00
2022-07-27T05:27:54.762Z,20667.53
2022-07-27T05:30:25.359Z,20649.22
2022-07-27T05:32:54.914Z,20645.16
2022-07-27T05:35:23.512Z,20689.88
2022-07-27T05:37:51.611Z,20695.97
2022-07-27T05:40:19.866Z,20665.50
2022-07-27T05:42:48.176Z,20691.91
2022-07-27T05:45:16.734Z,20681.75
2022-07-27T05:47:44.881Z,20677.69
2022-07-27T05:50:15.042Z,20748.84
2022-07-27T05:52:43.698Z,20732.56
2022-07-27T05:55:12.683Z,20752.91
2022-07-27T05:57:42.063Z,20700.03
2022-07-27T06:00:12.342Z,20669.56
2022-07-27T06:02:40.805Z,20663.47
2022-07-27T06:05:15.246Z,20681.75
2022-07-27T06:08:00.086Z,20663.47
2022-07-27T06:10:30.082Z,20657.34
2022-07-27T06:12:58.161Z,20704.13
2022-07-27T06:15:26.266Z,20655.31
2022-07-27T06:17:54.739Z,20645.16
2022-07-27T06:20:24.771Z,20685.81
2022-07-27T06:22:57.125Z,20761.03
2022-07-27T06:25:34.166Z,20730.53
2022-07-27T06:28:04.925Z,20710.22
2022-07-27T06:30:33.625Z,20710.22
2022-07-27T06:33:04.176Z,20724.44
2022-07-27T06:35:32.470Z,20750.88
2022-07-27T06:38:03.121Z,20777.28
2022-07-27T06:40:32.139Z,20754.94
2022-07-27T06:43:00.455Z,20744.78
2022-07-27T06:45:28.806Z,20840.31
2022-07-27T06:47:57.557Z,20777.28
2022-07-27T06:50:26.221Z,20826.09
2022-07-27T06:52:54.339Z,20880.97
2022-07-27T06:55:23.788Z,20923.66
2022-07-27T06:57:51.951Z,20935.88
2022-07-27T07:00:20.000Z,20891.13
2022-07-27T07:02:57.023Z,20980.59
2022-07-27T07:05:25.806Z,20988.72
2022-07-27T07:07:55.301Z,21053.78
2022-07-27T07:10:27.024Z,21033.44
2022-07-27T07:12:56.525Z,21086.31
2022-07-27T07:15:26.235Z,21043.59
2022-07-27T07:17:54.658Z,21031.41
2022-07-27T07:20:23.452Z,21033.44
2022-07-27T07:22:51.783Z,21070.03
2022-07-27T07:25:19.837Z,21070.03
2022-07-27T07:27:49.986Z,21043.59
2022-07-27T07:30:18.143Z,21072.06
2022-07-27T07:32:46.189Z,21057.84
2022-07-27T07:35:14.434Z,21165.59
2022-07-27T07:37:42.758Z,21159.50
2022-07-27T07:40:41.525Z,21122.91
2022-07-27T07:43:03.995Z,21194.06
2022-07-27T07:45:39.091Z,21090.38
2022-07-27T07:48:19.740Z,21118.84
2022-07-27T07:50:51.507Z,21131.03
2022-07-27T07:53:21.466Z,21185.91
2022-07-27T07:55:49.698Z,21145.25
2022-07-27T07:58:19.267Z,21289.59
2022-07-27T08:00:47.399Z,21165.59
2022-07-27T08:03:16.229Z,21141.19
2022-07-27T08:05:44.732Z,21137.13
2022-07-27T08:08:13.334Z,21118.84
2022-07-27T08:10:41.768Z,21171.69
2022-07-27T08:13:09.877Z,21120.88
2022-07-27T08:15:39.357Z,21192.03
2022-07-27T08:18:09.509Z,21202.19
2022-07-27T08:20:37.649Z,21187.97
2022-07-27T08:23:06.069Z,21222.53
2022-07-27T08:25:34.677Z,21222.53
2022-07-27T08:28:03.046Z,21301.81
2022-07-27T08:30:32.935Z,21362.81
2022-07-27T08:33:05.745Z,21474.63
2022-07-27T08:35:36.246Z,21444.13
2022-07-27T08:38:09.394Z,21480.72
2022-07-27T08:40:42.529Z,21460.41
2022-07-27T08:43:18.895Z,21507.16
2022-07-27T08:45:56.325Z,21480.72
2022-07-27T08:48:27.673Z,21488.88
2022-07-27T08:50:56.673Z,21580.34
2022-07-27T08:53:25.329Z,21655.59
2022-07-27T08:55:56.693Z,21525.47
2022-07-27T08:58:25.068Z,21494.97
2022-07-27T09:00:53.464Z,21458.38
2022-07-27T09:03:23.802Z,21415.66
2022-07-27T09:05:56.352Z,21450.22
2022-07-27T09:08:30.195Z,21427.88
2022-07-27T09:11:00.908Z,21399.41
2022-07-27T09:13:31.642Z,21411.59
2022-07-27T09:16:19.347Z,21444.13
2022-07-27T09:18:49.629Z,21401.44
2022-07-27T09:21:22.539Z,21440.06
2022-07-27T09:23:53.500Z,21429.91
2022-07-27T09:26:33.875Z,21533.59
2022-07-27T09:29:06.054Z,21651.53
2022-07-27T09:31:41.689Z,21643.38
2022-07-27T09:34:10.205Z,21686.09
2022-07-27T09:36:53.917Z,21736.94
2022-07-27T09:39:24.836Z,21657.63
2022-07-27T09:41:55.673Z,21779.63
2022-07-27T09:44:41.971Z,21893.50
2022-07-27T09:47:26.326Z,21818.25
2022-07-27T09:49:57.175Z,21909.75
2022-07-27T09:52:31.097Z,21793.84
2022-07-27T09:55:05.953Z,21720.66
2022-07-27T09:57:53.192Z,21663.72
2022-07-27T10:00:22.494Z,21645.44
2022-07-27T10:02:51.096Z,21633.22
2022-07-27T10:05:21.639Z,21555.97
2022-07-27T10:07:54.397Z,21553.94
2022-07-27T10:10:24.089Z,21631.19
2022-07-27T10:12:55.264Z,21688.13
2022-07-27T10:15:24.368Z,21810.13
2022-07-27T10:18:07.394Z,21901.63
2022-07-27T10:20:42.169Z,21842.66
2022-07-27T10:23:28.776Z,21767.44
2022-07-27T10:26:22.767Z,21582.38
2022-07-27T10:28:57.961Z,21499.03
2022-07-27T10:31:28.498Z,21474.63
2022-07-27T10:34:00.127Z,21478.69
2022-07-27T10:36:53.843Z,21590.53
2022-07-27T10:39:36.370Z,21659.66
2022-07-27T10:42:25.219Z,21572.22
2022-07-27T10:45:00.531Z,21619.00
2022-07-27T10:47:41.521Z,21686.09
2022-07-27T10:50:29.755Z,21655.59
2022-07-27T10:53:02.454Z,21558.00
2022-07-27T10:55:50.120Z,21633.22
2022-07-27T10:58:51.199Z,21594.59
2022-07-27T11:01:22.610Z,21690.16
2022-07-27T11:03:53.562Z,21655.59
2022-07-27T11:06:41.860Z,21722.69
2022-07-27T11:12:07.732Z,21779.63
2022-07-27T11:14:47.486Z,21826.41
2022-07-27T11:17:49.454Z,21816.22
2022-07-27T11:20:06.959Z,21734.88
2022-07-27T11:23:20.806Z,21649.50
2022-07-27T11:25:27.483Z,21509.19
2022-07-27T11:27:56.934Z,21509.19
2022-07-27T11:30:27.744Z,21501.06
2022-07-27T11:32:56.802Z,21511.22
2022-07-27T11:35:26.148Z,21545.78
2022-07-27T11:38:03.210Z,21706.44
2022-07-27T11:43:45.214Z,21757.25
2022-07-27T11:46:17.149Z,21732.84
2022-07-27T11:49:08.425Z,21635.25
2022-07-27T11:51:41.167Z,21623.06
2022-07-27T11:54:12.454Z,21566.13
2022-07-27T11:56:44.401Z,21539.69
2022-07-27T11:59:17.610Z,21541.72
2022-07-27T12:01:51.156Z,21627.13
2022-07-27T12:04:27.472Z,21598.66
2022-07-27T12:07:07.607Z,21529.53
2022-07-27T12:09:39.120Z,21543.75
2022-07-27T12:12:18.014Z,21635.25
2022-07-27T12:14:51.050Z,21692.19
2022-07-27T12:17:31.011Z,21787.75
2022-07-27T12:20:05.917Z,21928.06
2022-07-27T12:22:39.022Z,21974.84
2022-07-27T12:25:16.074Z,21962.63
2022-07-27T12:27:57.325Z,21867.06
2022-07-27T12:30:35.263Z,21850.78
2022-07-27T12:33:07.278Z,21820.28
2022-07-27T12:35:47.181Z,21822.31
2022-07-27T12:38:16.250Z,21741.00
2022-07-27T12:40:47.743Z,21688.13
2022-07-27T12:43:19.162Z,21838.59
2022-07-27T12:45:51.769Z,21816.22
2022-07-27T12:48:23.480Z,21887.41
2022-07-27T12:51:00.625Z,21940.25
2022-07-27T12:53:30.162Z,21956.53
2022-07-27T12:56:01.362Z,21976.88
2022-07-27T12:58:29.658Z,21976.88
2022-07-27T13:00:59.162Z,21942.31
2022-07-27T13:03:27.278Z,21903.66
2022-07-27T13:05:55.287Z,21960.59
2022-07-27T13:08:23.562Z,22035.84
2022-07-27T13:10:52.836Z,21964.66
2022-07-27T13:13:24.266Z,21889.44
2022-07-27T13:15:52.735Z,21856.91
2022-07-27T13:18:24.026Z,21818.25
2022-07-27T13:20:52.530Z,21769.47
2022-07-27T13:23:21.306Z,21677.97
2022-07-27T13:25:49.608Z,21692.19
2022-07-27T13:28:17.906Z,21751.16
2022-07-27T13:30:45.900Z,21759.28
2022-07-27T13:33:14.021Z,21761.31
2022-07-27T13:35:43.661Z,21714.56
2022-07-27T13:38:16.304Z,21692.19
2022-07-27T13:40:45.175Z,21669.81
2022-07-27T13:43:13.282Z,21716.59
2022-07-27T13:45:43.325Z,21797.94
2022-07-27T13:48:13.050Z,21893.50
2022-07-27T13:50:42.816Z,21987.03
2022-07-27T13:53:15.270Z,22117.19
2022-07-27T13:55:44.650Z,22137.50
2022-07-27T13:58:12.889Z,22151.75
2022-07-27T14:00:41.644Z,22168.03
2022-07-27T14:03:11.514Z,22159.88
2022-07-27T14:05:45.429Z,22229.03
2022-07-27T14:08:20.951Z,22277.84
2022-07-27T14:10:49.077Z,22361.22
2022-07-27T14:13:22.168Z,22383.59
2022-07-27T14:15:54.473Z,22267.66
2022-07-27T14:18:26.289Z,22170.06
2022-07-27T14:20:55.441Z,22151.75
2022-07-27T14:23:26.274Z,22137.50
2022-07-27T14:25:56.695Z,22137.50
2022-07-27T14:28:26.494Z,22143.63
2022-07-27T14:30:55.243Z,22159.88
2022-07-27T14:33:24.628Z,22231.06
2022-07-27T14:35:53.588Z,22147.69
2022-07-27T14:38:29.719Z,22111.09
2022-07-27T14:41:01.585Z,22111.09
2022-07-27T14:43:30.510Z,22043.97
2022-07-27T14:45:59.263Z,22013.47
2022-07-27T14:48:48.867Z,21885.38
2022-07-27T14:51:16.014Z,21936.19
2022-07-27T14:53:44.138Z,21875.19
2022-07-27T14:56:13.723Z,21909.75
2022-07-27T14:58:41.904Z,21917.91
2022-07-27T15:01:10.068Z,21881.28
2022-07-27T15:03:38.208Z,21860.97
2022-07-27T15:06:06.400Z,21846.72
2022-07-27T15:08:34.503Z,21832.50
2022-07-27T15:11:02.598Z,21773.53
2022-07-27T15:13:32.085Z,21753.19
2022-07-27T15:16:00.262Z,21753.19
2022-07-27T15:18:28.474Z,21769.47
2022-07-27T15:20:56.555Z,21793.84
2022-07-27T15:23:24.666Z,21785.72
2022-07-27T15:25:53.710Z,21797.94
2022-07-27T15:28:21.891Z,21785.72
2022-07-27T15:30:53.520Z,21848.75
2022-07-27T15:33:21.570Z,21850.78
2022-07-27T15:35:49.690Z,21846.72
2022-07-27T15:38:17.732Z,21826.41
2022-07-27T15:40:45.829Z,21885.38
2022-07-27T15:43:17.224Z,21956.53
2022-07-27T15:45:48.864Z,21903.66
2022-07-27T15:48:20.515Z,21867.06
2022-07-27T15:50:52.571Z,21838.59
2022-07-27T15:53:23.061Z,21822.31
2022-07-27T15:55:52.744Z,21871.13
2022-07-27T15:58:22.039Z,21863.00
2022-07-27T16:00:56.118Z,21907.72
2022-07-27T16:03:27.450Z,21926.03
2022-07-27T16:05:56.905Z,21909.75
2022-07-27T16:08:27.066Z,21911.78
2022-07-27T16:10:55.072Z,21877.22
2022-07-27T16:13:23.135Z,21804.03
2022-07-27T16:16:09.206Z,21785.72
2022-07-27T16:18:39.240Z,21783.69
2022-07-27T16:21:07.532Z,21769.47
2022-07-27T16:23:35.876Z,21773.53
2022-07-27T16:26:06.101Z,21743.03
2022-07-27T16:28:38.493Z,21728.78
2022-07-27T16:31:08.669Z,21716.59
2022-07-27T16:33:38.927Z,21722.69
2022-07-27T16:36:08.493Z,21702.34
2022-07-27T16:38:36.932Z,21710.50
2022-07-27T16:41:07.333Z,21649.50
2022-07-27T16:43:38.070Z,21653.56
2022-07-27T16:46:10.003Z,21614.94
2022-07-27T16:48:41.701Z,21616.97
2022-07-27T16:51:11.157Z,21592.56
2022-07-27T16:53:40.060Z,21580.34
2022-07-27T16:56:09.183Z,21570.19
2022-07-27T16:58:39.227Z,21547.81
2022-07-27T17:01:09.401Z,21527.50
2022-07-27T17:03:39.049Z,21494.97
2022-07-27T17:06:07.569Z,21582.38
2022-07-27T17:08:36.626Z,21570.19
2022-07-27T17:11:06.206Z,21513.25
2022-07-27T17:13:35.715Z,21541.72
2022-07-27T17:16:05.682Z,21584.44
2022-07-27T17:18:39.957Z,21525.47
2022-07-27T17:21:12.526Z,21480.72
2022-07-27T17:23:41.988Z,21497.00
2022-07-27T17:26:11.300Z,21531.56
2022-07-27T17:28:40.754Z,21450.22
2022-07-27T17:31:12.411Z,21450.22
2022-07-27T17:33:41.800Z,21466.50
2022-07-27T17:36:14.997Z,21466.50
2022-07-27T17:38:44.386Z,21419.72
2022-07-27T17:41:13.194Z,21397.38
2022-07-27T17:43:41.835Z,21440.06
2022-07-27T17:46:12.627Z,21488.88
2022-07-27T17:48:41.447Z,21454.28
2022-07-27T17:51:11.630Z,21464.47
2022-07-27T17:53:40.015Z,21446.16
2022-07-27T17:56:08.531Z,21362.81
2022-07-27T17:58:36.907Z,21395.34
2022-07-27T18:01:05.325Z,21399.41
2022-07-27T18:03:33.718Z,21411.59
2022-07-27T18:06:02.644Z,21383.13
2022-07-27T18:08:32.194Z,21375.00
2022-07-27T18:11:00.533Z,21356.69
2022-07-27T18:13:39.505Z,21330.28
2022-07-27T18:16:11.545Z,21344.50
2022-07-27T18:18:41.265Z,21342.47
2022-07-27T18:21:10.997Z,21291.66
2022-07-27T18:23:40.977Z,21295.72
2022-07-27T18:26:10.810Z,21285.53
2022-07-27T18:28:40.029Z,21269.28
2022-07-27T18:31:12.280Z,21244.88
2022-07-27T18:33:45.712Z,21246.91
2022-07-27T18:36:14.520Z,21228.63
2022-07-27T18:38:45.056Z,21208.28
2022-07-27T18:41:14.087Z,21192.03
2022-07-27T18:43:42.204Z,21190.00
2022-07-27T18:46:10.303Z,21149.31
2022-07-27T18:48:38.830Z,21157.47
2022-07-27T18:51:06.927Z,21118.84
2022-07-27T18:53:35.059Z,21116.78
2022-07-27T18:56:04.875Z,21090.38
2022-07-27T18:58:33.235Z,21076.13
2022-07-27T19:01:01.199Z,21082.25
2022-07-27T19:03:30.501Z,21110.69
2022-07-27T19:05:58.590Z,21098.50
2022-07-27T19:08:26.807Z,21031.41
2022-07-27T19:10:54.868Z,21013.13
2022-07-27T19:13:24.353Z,21004.97
2022-07-27T19:15:52.471Z,21027.34
2022-07-27T19:18:20.548Z,21007.00
2022-07-27T19:20:48.648Z,20998.88
2022-07-27T19:23:17.167Z,20968.38
2022-07-27T19:25:46.085Z,20927.72
2022-07-27T19:28:18.885Z,20952.13
2022-07-27T19:30:48.694Z,20923.66
2022-07-27T19:33:16.730Z,20891.13
2022-07-27T19:35:44.903Z,20883.00
2022-07-27T19:38:13.356Z,20866.75
2022-07-27T19:40:45.006Z,20893.16
2022-07-27T19:43:15.739Z,20880.97
2022-07-27T19:45:44.001Z,20854.53
2022-07-27T19:48:13.738Z,20870.81
2022-07-27T19:50:42.422Z,20870.81
2022-07-27T19:53:10.624Z,20903.34
2022-07-27T19:55:38.840Z,20899.28
2022-07-27T19:58:06.894Z,20838.28
2022-07-27T20:00:35.021Z,20838.28
2022-07-27T20:03:03.423Z,20852.50
2022-07-27T20:05:32.931Z,20828.13
2022-07-27T20:08:01.102Z,20838.28
2022-07-27T20:10:29.216Z,20840.31
2022-07-27T20:12:57.415Z,20828.13
2022-07-27T20:15:26.311Z,20775.25
2022-07-27T20:17:54.320Z,20742.75
2022-07-27T20:20:22.691Z,20771.19
2022-07-27T20:22:52.453Z,20736.63
2022-07-27T20:25:20.557Z,20767.13
2022-07-27T20:27:48.934Z,20787.47
2022-07-27T20:30:19.955Z,20716.31
2022-07-27T20:32:49.006Z,20736.63
2022-07-27T20:35:17.768Z,20742.75
2022-07-27T20:37:47.318Z,20752.91
2022-07-27T20:40:16.886Z,20732.56
2022-07-27T20:42:45.315Z,20740.69
2022-07-27T20:45:14.590Z,20720.38
2022-07-27T20:47:44.131Z,20732.56
2022-07-27T20:50:15.429Z,20773.22
2022-07-27T20:52:44.318Z,20742.75
2022-07-27T20:55:12.967Z,20698.00
2022-07-27T20:57:42.325Z,20730.53
2022-07-27T21:00:12.752Z,20726.47
2022-07-27T21:02:40.906Z,20702.09
2022-07-27T21:05:10.417Z,20714.28
2022-07-27T21:07:38.834Z,20700.03
2022-07-27T21:10:08.560Z,20736.63
2022-07-27T21:12:36.698Z,20716.31
2022-07-27T21:15:13.075Z,20728.50
2022-07-27T21:17:41.724Z,20720.38
2022-07-27T21:20:11.489Z,20740.69
2022-07-27T21:22:39.528Z,20767.13
2022-07-27T21:25:08.663Z,20716.31
2022-07-27T21:27:37.127Z,20740.69
2022-07-27T21:30:09.633Z,20754.94
2022-07-27T21:32:37.665Z,20704.13
2022-07-27T21:35:07.363Z,20689.88
2022-07-27T21:37:35.600Z,20681.75
2022-07-27T21:40:03.646Z,20681.75
2022-07-27T21:42:32.986Z,20673.63
2022-07-27T21:45:01.000Z,20663.47
2022-07-27T21:47:31.904Z,20675.66
2022-07-27T21:50:00.092Z,20667.53
2022-07-27T21:52:28.063Z,20677.69
2022-07-27T21:54:56.113Z,20675.66
2022-07-27T21:57:24.187Z,20671.59
2022-07-27T21:59:52.425Z,20667.53
2022-07-27T22:02:20.524Z,20693.94
2022-07-27T22:04:50.089Z,20689.88
2022-07-27T22:07:19.564Z,20651.25
2022-07-27T22:09:47.728Z,20635.00
2022-07-27T22:12:15.857Z,20659.38
2022-07-27T22:14:43.977Z,20663.47
2022-07-27T22:17:12.041Z,20635.00
2022-07-27T22:19:40.242Z,20610.59
2022-07-27T22:22:09.685Z,20639.06
2022-07-27T22:24:38.084Z,20614.66
2022-07-27T22:27:06.890Z,20594.34
2022-07-27T22:29:35.607Z,20598.41
2022-07-27T22:32:03.988Z,20596.38
2022-07-27T22:34:32.149Z,20594.34
2022-07-27T22:37:00.501Z,20612.63
2022-07-27T22:39:30.114Z,20596.38
2022-07-27T22:41:59.045Z,20616.69
2022-07-27T22:44:27.242Z,20606.53
2022-07-27T22:46:55.477Z,20580.13
2022-07-27T22:49:23.690Z,20643.13
2022-07-27T22:51:52.841Z,20614.66
2022-07-27T22:54:23.067Z,20610.59
2022-07-27T22:56:53.320Z,20616.69
2022-07-27T22:59:21.840Z,20582.16
2022-07-27T23:01:49.942Z,20616.69
2022-07-27T23:04:18.732Z,20545.56
2022-07-27T23:06:47.652Z,20569.94
2022-07-27T23:09:16.727Z,20598.41
2022-07-27T23:11:45.501Z,20592.31
2022-07-27T23:14:15.340Z,20533.34
2022-07-27T23:16:44.471Z,20598.41
2022-07-27T23:19:12.682Z,20569.94
2022-07-27T23:21:41.754Z,20574.00
2022-07-27T23:24:13.521Z,20563.84
2022-07-27T23:26:42.702Z,20539.47
2022-07-27T23:29:10.954Z,20561.81
2022-07-27T23:31:40.503Z,20574.00
2022-07-27T23:34:08.677Z,20515.06
2022-07-27T23:36:36.760Z,20541.50
2022-07-27T23:39:05.190Z,20508.97
2022-07-27T23:41:33.232Z,20492.72
2022-07-27T23:44:01.353Z,20476.44
2022-07-27T23:46:29.598Z,20494.75
2022-07-27T23:48:59.089Z,20472.38
2022-07-27T23:51:27.174Z,20488.63
2022-07-27T23:53:55.195Z,20472.38
2022-07-27T23:56:23.239Z,20490.66
2022-07-27T23:58:51.275Z,20464.25
